createdAt,value
2022-08-05T00:02:07.945Z,101409.28
2022-08-05T00:04:40.924Z,101408.47
2022-08-05T00:07:21.837Z,101404.53
2022-08-05T00:10:01.974Z,101391.81
2022-08-05T00:12:31.433Z,101399.72
2022-08-05T00:15:54.007Z,101392.13
2022-08-05T00:17:50.136Z,101385.28
2022-08-05T00:20:20.385Z,101384.19
2022-08-05T00:22:57.383Z,101387.81
2022-08-05T00:25:45.610Z,101390.53
2022-08-05T00:28:16.307Z,101395.28
2022-08-05T00:31:04.208Z,101397.84
2022-08-05T00:34:53.626Z,101400.38
2022-08-05T00:37:13.093Z,101395.28
2022-08-05T00:39:16.869Z,101379.88
2022-08-05T00:41:55.114Z,101379.38
2022-08-05T00:44:30.856Z,101374.63
2022-08-05T00:47:04.041Z,101372.75
2022-08-05T00:49:51.045Z,101376.56
2022-08-05T00:52:28.200Z,101371.50
2022-08-05T00:54:58.618Z,101369.31
2022-08-05T00:57:38.319Z,101378.03
2022-08-05T01:00:18.015Z,101371.19
2022-08-05T01:02:50.105Z,101369.47
2022-08-05T01:05:19.703Z,101365.50
2022-08-05T01:08:40.112Z,101370.91
2022-08-05T01:10:51.501Z,101369.66
2022-08-05T01:13:57.558Z,101366.47
2022-08-05T01:16:44.129Z,101359.59
2022-08-05T01:19:46.264Z,101364.06
2022-08-05T01:22:42.025Z,101358.84
2022-08-05T01:26:02.758Z,101356.31
2022-08-05T01:28:39.836Z,101348.19
2022-08-05T01:31:17.953Z,101349.31
2022-08-05T01:34:07.424Z,101371.09
2022-08-05T01:36:47.112Z,101384.94
2022-08-05T01:39:46.042Z,101399.50
2022-08-05T01:42:11.962Z,101407.00
2022-08-05T01:44:45.694Z,101426.88
2022-08-05T01:47:30.506Z,101431.94
2022-08-05T01:50:19.391Z,101431.94
2022-08-05T01:53:02.728Z,101441.16
2022-08-05T01:55:36.456Z,101452.28
2022-08-05T01:58:15.546Z,101460.06
2022-08-05T02:00:51.442Z,101465.94
2022-08-05T02:03:40.073Z,101454.81
2022-08-05T02:06:37.392Z,101445.91
2022-08-05T02:09:05.189Z,101455.63
2022-08-05T02:12:05.784Z,101463.41
2022-08-05T02:15:12.454Z,101466.75
2022-08-05T02:18:32.320Z,101461.22
2022-08-05T02:20:49.347Z,101469.47
2022-08-05T02:23:23.077Z,101480.28
2022-08-05T02:25:54.503Z,101489.66
2022-08-05T02:28:32.095Z,101463.59
2022-08-05T02:31:34.855Z,101419.56
2022-08-05T02:34:10.027Z,101376.63
2022-08-05T02:36:44.535Z,101382.69
2022-08-05T02:39:15.657Z,101424.69
2022-08-05T02:42:01.010Z,101427.84
2022-08-05T02:44:32.792Z,101423.75
2022-08-05T02:47:02.862Z,101420.72
2022-08-05T02:49:40.574Z,101414.84
2022-08-05T02:52:30.148Z,101410.25
2022-08-05T02:55:02.014Z,101421.06
2022-08-05T02:58:11.718Z,101422.78
2022-08-05T03:00:27.010Z,101424.72
2022-08-05T03:02:59.921Z,101432.66
2022-08-05T03:06:55.331Z,101425.97
2022-08-05T03:08:26.991Z,101438.38
2022-08-05T03:11:53.367Z,101438.84
2022-08-05T03:13:51.915Z,101432.13
2022-08-05T03:16:32.892Z,101408.31
2022-08-05T03:19:12.928Z,101401.50
2022-08-05T03:21:48.948Z,101383.72
2022-08-05T03:31:56.721Z,101398.81
2022-08-05T03:34:26.425Z,101379.56
2022-08-05T03:36:56.461Z,101382.88
2022-08-05T03:39:26.859Z,101394.81
2022-08-05T03:41:57.987Z,101401.63
2022-08-05T03:44:29.017Z,101397.97
2022-08-05T03:46:58.740Z,101391.28
2022-08-05T03:49:31.193Z,101397.00
2022-08-05T03:52:48.658Z,101397.78
2022-08-05T03:56:03.960Z,101418.59
2022-08-05T03:58:13.886Z,101407.81
2022-08-05T04:00:51.567Z,101401.63
2022-08-05T04:03:28.386Z,101399.22
2022-08-05T04:06:00.641Z,101406.84
2022-08-05T04:08:36.532Z,101413.78
2022-08-05T04:11:08.575Z,101418.25
2022-08-05T04:13:49.813Z,101408.09
2022-08-05T04:16:24.343Z,101409.53
2022-08-05T04:18:57.729Z,101417.41
2022-08-05T04:22:09.469Z,101434.19
2022-08-05T04:24:19.624Z,101434.31
2022-08-05T04:26:52.888Z,101431.78
2022-08-05T04:29:22.382Z,101437.75
2022-08-05T04:31:52.517Z,101445.66
2022-08-05T04:34:32.945Z,101459.59
2022-08-05T04:37:05.699Z,101461.78
2022-08-05T04:39:35.543Z,101475.06
2022-08-05T04:42:05.213Z,101467.09
2022-08-05T04:44:34.591Z,101456.81
2022-08-05T04:47:09.778Z,101448.66
2022-08-05T04:50:01.391Z,101451.31
2022-08-05T04:52:33.405Z,101453.38
2022-08-05T04:55:09.586Z,101452.25
2022-08-05T04:57:47.507Z,101457.56
2022-08-05T05:00:18.003Z,101455.38
2022-08-05T05:02:47.406Z,101466.47
2022-08-05T05:05:28.455Z,101444.28
2022-08-05T05:08:02.638Z,101444.66
2022-08-05T05:10:33.834Z,101446.28
2022-08-05T05:13:03.960Z,101443.75
2022-08-05T05:15:56.252Z,101442.44
2022-08-05T05:18:31.361Z,101449.50
2022-08-05T05:21:05.518Z,101452.72
2022-08-05T05:24:01.948Z,101446.66
2022-08-05T05:26:28.727Z,101453.22
2022-08-05T05:29:02.612Z,101457.34
2022-08-05T05:34:07.875Z,101458.31
2022-08-05T05:36:37.505Z,101456.13
2022-08-05T05:39:10.790Z,101458.91
2022-08-05T05:41:42.703Z,101454.16
2022-08-05T05:44:35.995Z,101471.00
2022-08-05T05:47:04.234Z,101483.97
2022-08-05T05:49:42.735Z,101489.81
2022-08-05T05:52:13.344Z,101485.56
2022-08-05T05:55:02.496Z,101479.47
2022-08-05T05:57:51.909Z,101472.31
2022-08-05T06:00:31.433Z,101472.75
2022-08-05T06:03:39.855Z,101478.16
2022-08-05T06:05:55.638Z,101459.50
2022-08-05T06:08:32.531Z,101469.53
2022-08-05T06:11:02.727Z,101468.81
2022-08-05T06:13:40.896Z,101471.25
2022-08-05T06:16:30.333Z,101468.81
2022-08-05T06:19:05.864Z,101477.22
2022-08-05T06:21:38.355Z,101479.47
2022-08-05T06:24:14.762Z,101486.44
2022-08-05T06:26:51.295Z,101488.88
2022-08-05T06:29:25.410Z,101495.22
2022-08-05T06:32:25.585Z,101507.09
2022-08-05T06:35:00.116Z,101501.06
2022-08-05T06:37:56.163Z,101512.19
2022-08-05T06:40:27.944Z,101521.75
2022-08-05T06:43:01.687Z,101518.19
2022-08-05T06:45:44.580Z,101511.09
2022-08-05T06:48:55.351Z,101518.25
2022-08-05T06:51:21.819Z,101517.94
2022-08-05T06:53:57.721Z,101521.56
2022-08-05T06:56:27.895Z,101520.59
2022-08-05T06:58:57.918Z,101531.41
2022-08-05T07:01:32.187Z,101523.22
2022-08-05T07:04:04.113Z,101527.88
2022-08-05T07:06:33.946Z,101516.03
2022-08-05T07:09:04.664Z,101532.00
2022-08-05T07:11:36.950Z,101523.47
2022-08-05T07:14:29.327Z,101532.50
2022-08-05T07:18:00.304Z,101543.13
2022-08-05T07:22:47.813Z,101549.44
2022-08-05T07:25:54.165Z,101549.94
2022-08-05T07:28:08.360Z,101546.47
2022-08-05T07:30:41.670Z,101539.81
2022-08-05T07:33:16.435Z,101558.78
2022-08-05T07:36:02.054Z,101568.94
2022-08-05T07:38:43.328Z,101560.56
2022-08-05T07:42:13.532Z,101575.53
2022-08-05T07:44:18.896Z,101567.31
2022-08-05T07:46:50.451Z,101575.25
2022-08-05T07:49:20.725Z,101579.06
2022-08-05T07:51:54.548Z,101572.06
2022-08-05T07:54:30.943Z,101572.41
2022-08-05T07:57:22.390Z,101580.81
2022-08-05T07:59:54.210Z,101581.63
2022-08-05T08:02:30.898Z,101583.69
2022-08-05T08:05:18.711Z,101589.91
2022-08-05T08:07:59.145Z,101589.59
2022-08-05T08:10:30.521Z,101574.66
2022-08-05T08:13:01.583Z,101591.34
2022-08-05T08:16:33.538Z,101586.09
2022-08-05T08:18:21.248Z,101589.28
2022-08-05T08:21:02.837Z,101590.88
2022-08-05T08:24:02.489Z,101597.41
2022-08-05T08:26:26.552Z,101602.03
2022-08-05T08:28:59.723Z,101608.06
2022-08-05T08:31:48.330Z,101622.50
2022-08-05T08:34:18.635Z,101610.91
2022-08-05T08:36:54.763Z,101616.31
2022-08-05T08:39:26.135Z,101611.03
2022-08-05T08:41:59.806Z,101613.53
2022-08-05T08:45:23.302Z,101630.22
2022-08-05T08:48:07.648Z,101623.50
2022-08-05T08:50:33.197Z,101631.72
2022-08-05T08:53:13.172Z,101634.72
2022-08-05T08:56:04.083Z,101641.69
2022-08-05T08:58:37.618Z,101639.31
2022-08-05T09:01:15.870Z,101646.09
2022-08-05T09:03:46.576Z,101650.16
2022-08-05T09:06:21.141Z,101652.97
2022-08-05T09:08:53.589Z,101657.38
2022-08-05T09:11:51.884Z,101669.59
2022-08-05T09:14:56.546Z,101657.63
2022-08-05T09:17:09.675Z,101663.06
2022-08-05T09:20:02.782Z,101674.66
2022-08-05T09:23:18.625Z,101675.28
2022-08-05T09:26:09.848Z,101684.44
2022-08-05T09:28:41.063Z,101696.88
2022-08-05T09:32:39.163Z,101688.97
2022-08-05T09:34:10.640Z,101691.81
2022-08-05T09:36:54.794Z,101699.28
2022-08-05T09:39:41.935Z,101694.69
2022-08-05T09:42:24.460Z,101708.63
2022-08-05T09:45:17.376Z,101708.31
2022-08-05T09:47:56.467Z,101711.38
2022-08-05T09:50:44.079Z,101717.16
2022-08-05T09:53:25.706Z,101714.22
2022-08-05T09:56:04.634Z,101711.66
2022-08-05T09:58:34.433Z,101718.00
2022-08-05T10:01:22.571Z,101717.28
2022-08-05T10:04:10.395Z,101704.94
2022-08-05T10:06:54.785Z,101711.19
2022-08-05T10:09:29.925Z,101682.94
2022-08-05T10:12:18.767Z,101709.31
2022-08-05T10:15:20.389Z,101717.13
2022-08-05T10:18:16.684Z,101714.16
2022-08-05T10:20:50.790Z,101726.19
2022-08-05T10:23:55.633Z,101732.56
2022-08-05T10:26:19.168Z,101734.38
2022-08-05T10:28:53.924Z,101738.50
2022-08-05T10:32:52.514Z,101743.81
2022-08-05T10:34:16.941Z,101753.88
2022-08-05T10:36:47.147Z,101747.72
2022-08-05T10:39:25.090Z,101750.25
2022-08-05T10:42:33.556Z,101755.03
2022-08-05T10:45:21.399Z,101759.81
2022-08-05T10:48:30.115Z,101759.13
2022-08-05T10:51:01.131Z,101753.97
2022-08-05T10:53:38.209Z,101759.22
2022-08-05T10:56:21.478Z,101758.72
2022-08-05T10:59:07.336Z,101754.03
2022-08-05T11:01:54.560Z,101754.31
2022-08-05T11:04:36.616Z,101752.13
2022-08-05T11:07:11.998Z,101741.25
2022-08-05T11:09:47.497Z,101755.16
2022-08-05T11:12:42.284Z,101752.47
2022-08-05T11:15:59.475Z,101759.38
2022-08-05T11:18:34.119Z,101740.63
2022-08-05T11:21:06.253Z,101748.31
2022-08-05T11:24:04.787Z,101753.09
2022-08-05T11:26:33.667Z,101744.44
2022-08-05T11:29:12.812Z,101761.84
2022-08-05T11:31:58.242Z,101762.31
2022-08-05T11:34:52.095Z,101765.84
2022-08-05T11:38:29.747Z,101772.53
2022-08-05T11:41:12.785Z,101769.50
2022-08-05T11:44:05.640Z,101772.00
2022-08-05T11:47:09.819Z,101771.16
2022-08-05T11:49:28.029Z,101774.59
2022-08-05T11:51:58.012Z,101775.66
2022-08-05T11:54:35.070Z,101781.94
2022-08-05T11:57:08.270Z,101779.16
2022-08-05T11:59:54.445Z,101791.00
2022-08-05T12:02:33.110Z,101785.22
2022-08-05T12:05:17.945Z,101777.28
2022-08-05T12:08:10.270Z,101799.16
2022-08-05T12:10:45.186Z,101791.72
2022-08-05T12:13:47.633Z,101800.66
2022-08-05T12:16:20.158Z,101800.66
2022-08-05T12:18:56.298Z,101807.69
2022-08-05T12:21:31.923Z,101812.88
2022-08-05T12:24:06.710Z,101817.53
2022-08-05T12:26:44.142Z,101823.28
2022-08-05T12:29:29.048Z,101816.78
2022-08-05T12:32:09.828Z,101827.94
2022-08-05T12:34:40.531Z,101844.06
2022-08-05T12:37:17.271Z,101835.06
2022-08-05T12:39:53.969Z,101839.47
2022-08-05T12:42:25.373Z,101841.31
2022-08-05T12:44:54.900Z,101846.63
2022-08-05T12:47:32.060Z,101852.28
2022-08-05T12:50:14.934Z,101859.78
2022-08-05T12:52:45.340Z,101864.88
2022-08-05T12:55:25.452Z,101868.91
2022-08-05T12:58:38.494Z,101873.16
2022-08-05T13:02:02.594Z,101874.75
2022-08-05T13:03:45.459Z,101882.53
2022-08-05T13:06:19.932Z,101891.53
2022-08-05T13:08:52.151Z,101881.88
2022-08-05T13:12:02.794Z,101882.81
2022-08-05T13:14:36.591Z,101884.63
2022-08-05T13:17:12.110Z,101891.25
2022-08-05T13:19:52.133Z,101889.69
2022-08-05T13:22:28.351Z,101902.13
2022-08-05T13:25:05.715Z,101891.47
2022-08-05T13:27:56.246Z,101892.09
2022-08-05T13:30:34.757Z,101897.81
2022-08-05T13:33:06.835Z,101909.81
2022-08-05T13:35:47.504Z,101923.63
2022-08-05T13:38:30.958Z,101917.72
2022-08-05T13:41:05.943Z,101918.16
2022-08-05T13:43:43.571Z,101919.38
2022-08-05T13:46:44.392Z,101923.06
2022-08-05T13:49:13.692Z,101928.13
2022-08-05T13:51:46.352Z,101928.97
2022-08-05T13:54:17.171Z,101921.34
2022-08-05T13:56:52.029Z,101920.53
2022-08-05T13:59:24.328Z,101924.38
2022-08-05T14:01:57.754Z,101928.97
2022-08-05T14:04:49.769Z,101937.63
2022-08-05T14:08:00.611Z,101935.75
2022-08-05T14:10:29.246Z,101930.84
2022-08-05T14:13:01.351Z,101936.31
2022-08-05T14:16:07.313Z,101945.63
2022-08-05T14:18:23.215Z,101947.31
2022-08-05T14:20:54.886Z,101949.38
2022-08-05T14:23:28.085Z,101951.75
2022-08-05T14:26:06.340Z,101954.72
2022-08-05T14:28:35.873Z,101951.91
2022-08-05T14:32:02.164Z,101976.78
2022-08-05T14:34:12.143Z,101964.72
2022-08-05T14:36:43.268Z,101954.78
2022-08-05T14:39:23.158Z,101971.81
2022-08-05T14:42:15.967Z,101969.06
2022-08-05T14:44:42.620Z,101974.78
2022-08-05T14:47:12.244Z,101981.91
2022-08-05T14:49:58.539Z,101981.72
2022-08-05T14:52:51.725Z,101979.44
2022-08-05T14:55:18.620Z,101974.75
2022-08-05T14:57:54.275Z,101972.38
2022-08-05T15:00:29.321Z,101977.72
2022-08-05T15:02:59.480Z,101972.94
2022-08-05T15:05:29.973Z,101976.53
2022-08-05T15:08:37.952Z,101981.88
2022-08-05T15:11:08.603Z,101982.66
2022-08-05T15:13:46.001Z,101990.50
2022-08-05T15:16:19.600Z,101997.00
2022-08-05T15:18:51.524Z,101994.81
2022-08-05T15:21:21.929Z,101989.97
2022-08-05T15:23:53.763Z,101999.59
2022-08-05T15:26:31.954Z,101991.84
2022-08-05T15:29:02.637Z,101999.81
2022-08-05T15:31:34.861Z,101996.38
2022-08-05T15:34:32.337Z,101996.22
2022-08-05T15:36:53.933Z,101996.97
2022-08-05T15:41:00.018Z,102005.72
2022-08-05T15:42:55.124Z,102000.41
2022-08-05T15:45:02.526Z,101999.91
2022-08-05T15:47:32.029Z,101992.44
2022-08-05T15:50:06.165Z,101993.94
2022-08-05T15:52:53.963Z,102001.78
2022-08-05T15:56:03.204Z,102006.34
2022-08-05T15:58:16.547Z,102004.84
2022-08-05T16:01:04.466Z,102006.66
2022-08-05T16:03:35.960Z,102017.88
2022-08-05T16:06:12.116Z,102015.97
2022-08-05T16:08:41.932Z,102009.91
2022-08-05T16:11:13.337Z,102023.63
2022-08-05T16:13:43.271Z,102015.28
2022-08-05T16:16:12.562Z,102020.94
2022-08-05T16:18:51.967Z,102015.50
2022-08-05T16:21:59.347Z,102017.69
2022-08-05T16:24:35.826Z,102018.41
2022-08-05T16:27:04.305Z,102016.91
2022-08-05T16:29:37.385Z,102022.47
2022-08-05T16:32:09.983Z,102026.50
2022-08-05T16:34:41.723Z,102035.22
2022-08-05T16:38:16.429Z,102036.09
2022-08-05T16:40:05.702Z,102031.47
2022-08-05T16:42:37.260Z,102037.97
2022-08-05T16:46:06.893Z,102033.16
2022-08-05T16:48:02.592Z,102042.72
2022-08-05T16:50:32.718Z,102047.50
2022-08-05T16:53:12.612Z,102052.22
2022-08-05T16:55:51.879Z,102046.47
2022-08-05T16:58:21.278Z,102048.06
2022-08-05T17:00:54.708Z,102064.81
2022-08-05T17:03:24.474Z,102052.53
2022-08-05T17:05:59.585Z,102070.38
2022-08-05T17:08:36.227Z,102073.94
2022-08-05T17:11:23.498Z,102080.09
2022-08-05T17:14:05.330Z,102083.44
2022-08-05T17:16:40.468Z,102077.38
2022-08-05T17:19:10.890Z,102082.38
2022-08-05T17:21:40.859Z,102079.38
2022-08-05T17:24:19.324Z,102076.22
2022-08-05T17:27:01.107Z,102087.72
2022-08-05T17:29:33.059Z,102076.34
2022-08-05T17:32:03.491Z,102096.41
2022-08-05T17:34:34.883Z,102095.69
2022-08-05T17:37:04.731Z,102091.38
2022-08-05T17:39:55.220Z,102104.59
2022-08-05T17:42:30.051Z,102108.78
2022-08-05T17:45:08.060Z,102105.41
2022-08-05T17:47:42.615Z,102123.31
2022-08-05T17:50:12.667Z,102120.09
2022-08-05T17:52:53.358Z,102130.94
2022-08-05T17:55:34.152Z,102137.34
2022-08-05T17:58:04.861Z,102129.41
2022-08-05T18:00:36.239Z,102131.78
2022-08-05T18:03:59.803Z,102136.88
2022-08-05T18:06:11.110Z,102148.03
2022-08-05T18:08:44.764Z,102149.31
2022-08-05T18:11:24.645Z,102154.38
2022-08-05T18:14:07.129Z,102155.47
2022-08-05T18:16:51.017Z,102162.47
2022-08-05T18:19:23.261Z,102169.81
2022-08-05T18:22:08.775Z,102165.31
2022-08-05T18:24:39.964Z,102174.22
2022-08-05T18:27:12.373Z,102176.78
2022-08-05T18:29:42.694Z,102190.41
2022-08-05T18:32:19.962Z,102184.34
2022-08-05T18:34:49.268Z,102186.88
2022-08-05T18:37:34.426Z,102186.09
2022-08-05T18:40:34.187Z,102189.09
2022-08-05T18:42:58.442Z,102195.44
2022-08-05T18:45:41.525Z,102202.09
2022-08-05T18:48:30.552Z,102208.25
2022-08-05T18:52:05.612Z,102208.84
2022-08-05T18:54:04.078Z,102207.50
2022-08-05T18:56:33.481Z,102208.25
2022-08-05T18:59:03.224Z,102211.06
2022-08-05T19:01:58.032Z,102216.38
2022-08-05T19:04:29.359Z,102223.31
2022-08-05T19:06:59.139Z,102227.69
2022-08-05T19:09:28.528Z,102229.16
2022-08-05T19:12:10.584Z,102234.31
2022-08-05T19:15:00.522Z,102232.13
2022-08-05T19:17:59.148Z,102239.38
2022-08-05T19:20:20.982Z,102248.19
2022-08-05T19:22:50.252Z,102253.47
2022-08-05T19:25:21.567Z,102246.38
2022-08-05T19:27:59.645Z,102241.94
2022-08-05T19:30:29.414Z,102259.22
2022-08-05T19:32:58.787Z,102265.19
2022-08-05T19:35:56.530Z,102267.09
2022-08-05T19:38:22.713Z,102287.81
2022-08-05T19:40:56.087Z,102284.44
2022-08-05T19:44:06.823Z,102285.88
2022-08-05T19:46:16.786Z,102291.81
2022-08-05T19:49:01.285Z,102296.03
2022-08-05T19:52:08.810Z,102306.31
2022-08-05T19:54:29.508Z,102310.88
2022-08-05T19:57:02.663Z,102307.75
2022-08-05T19:59:55.935Z,102312.56
2022-08-05T20:02:31.457Z,102312.41
2022-08-05T20:05:04.655Z,102313.56
2022-08-05T20:07:46.662Z,102307.16
2022-08-05T20:10:22.400Z,102312.25
2022-08-05T20:12:55.139Z,102309.13
2022-08-05T20:15:51.723Z,102316.19
2022-08-05T20:18:33.156Z,102316.28
2022-08-05T20:21:06.704Z,102317.19
2022-08-05T20:23:50.293Z,102326.63
2022-08-05T20:26:24.739Z,102329.09
2022-08-05T20:28:56.890Z,102333.31
2022-08-05T20:31:42.169Z,102328.50
2022-08-05T20:34:18.696Z,102339.97
2022-08-05T20:36:49.453Z,102341.69
2022-08-05T20:39:19.437Z,102344.72
2022-08-05T20:41:49.476Z,102348.91
2022-08-05T20:44:30.110Z,102345.31
2022-08-05T20:47:06.626Z,102350.75
2022-08-05T20:49:38.072Z,102352.09
2022-08-05T20:52:10.606Z,102348.53
2022-08-05T20:54:59.088Z,102357.97
2022-08-05T20:57:43.009Z,102360.91
2022-08-05T21:00:34.990Z,102365.88
2022-08-05T21:03:08.193Z,102364.00
2022-08-05T21:05:53.464Z,102361.66
2022-08-05T21:08:28.023Z,102374.31
2022-08-05T21:11:12.107Z,102376.44
2022-08-05T21:13:55.591Z,102381.50
2022-08-05T21:16:31.010Z,102377.97
2022-08-05T21:19:03.465Z,102367.53
2022-08-05T21:21:39.830Z,102371.25
2022-08-05T21:24:16.943Z,102372.94
2022-08-05T21:26:53.642Z,102379.50
2022-08-05T21:29:32.090Z,102377.88
2022-08-05T21:32:02.857Z,102382.06
2022-08-05T21:34:33.001Z,102392.28
2022-08-05T21:37:04.867Z,102387.09
2022-08-05T21:39:34.907Z,102392.88
2022-08-05T21:42:28.905Z,102393.81
2022-08-05T21:45:00.082Z,102395.19
2022-08-05T21:47:54.967Z,102396.00
2022-08-05T21:50:19.603Z,102390.00
2022-08-05T21:52:51.573Z,102402.25
2022-08-05T21:55:43.013Z,102400.34
2022-08-05T21:58:11.794Z,102400.84
2022-08-05T22:00:41.488Z,102402.53
2022-08-05T22:03:20.695Z,102414.03
2022-08-05T22:06:09.838Z,102413.72
2022-08-05T22:08:42.836Z,102419.97
2022-08-05T22:11:15.727Z,102407.06
2022-08-05T22:14:34.437Z,102426.66
2022-08-05T22:16:51.921Z,102411.78
2022-08-05T22:20:01.069Z,102413.44
2022-08-05T22:22:15.612Z,102404.19
2022-08-05T22:24:58.076Z,102418.81
2022-08-05T22:28:10.258Z,102422.53
2022-08-05T22:30:32.463Z,102411.59
2022-08-05T22:33:15.722Z,102429.03
2022-08-05T22:35:49.235Z,102419.88
2022-08-05T22:38:19.871Z,102428.84
2022-08-05T22:40:54.983Z,102422.78
2022-08-05T22:43:37.106Z,102436.59
2022-08-05T22:46:13.035Z,102436.25
2022-08-05T22:48:47.294Z,102438.78
2022-08-05T22:51:23.236Z,102441.22
2022-08-05T22:54:06.607Z,102436.38
2022-08-05T22:56:36.619Z,102438.00
2022-08-05T22:59:43.692Z,102445.34
2022-08-05T23:02:05.725Z,102442.56
2022-08-05T23:04:37.564Z,102445.41
2022-08-05T23:07:07.272Z,102450.31
2022-08-05T23:09:58.230Z,102452.78
2022-08-05T23:12:28.654Z,102452.41
2022-08-05T23:14:58.410Z,102450.41
2022-08-05T23:17:34.937Z,102454.53
2022-08-05T23:20:17.451Z,102460.63
2022-08-05T23:22:48.691Z,102458.22
2022-08-05T23:25:52.196Z,102461.09
2022-08-05T23:28:09.362Z,102469.25
2022-08-05T23:30:52.798Z,102471.75
2022-08-05T23:34:02.678Z,102472.56
2022-08-05T23:36:14.126Z,102474.28
2022-08-05T23:38:43.910Z,102475.44
2022-08-05T23:41:13.611Z,102477.47
2022-08-05T23:44:03.647Z,102479.97
2022-08-05T23:46:33.424Z,102480.84
2022-08-05T23:49:17.091Z,102476.78
2022-08-05T23:52:01.117Z,102479.69
2022-08-05T23:54:38.113Z,102473.69
2022-08-05T23:57:09.228Z,102474.19
